sensor_id;sensor_type;location;lat;lon;timestamp;P1;durP1;ratioP1;P2;durP2;ratioP2
4732;SDS011;2380;53.668;10.008;2023-01-01T00:00:36;21.10;;;9.47;;
4732;SDS011;2380;53.668;10.008;2023-01-01T00:03:06;11.40;;;5.63;;
4732;SDS011;2380;53.668;10.008;2023-01-01T00:05:36;14.17;;;6.80;;
4732;SDS011;2380;53.668;10.008;2023-01-01T00:08:06;17.20;;;7.80;;
4732;SDS011;2380;53.668;10.008;2023-01-01T00:10:36;18.93;;;7.33;;
4732;SDS011;2380;53.668;10.008;2023-01-01T00:13:10;8.70;;;5.00;;
4732;SDS011;2380;53.668;10.008;2023-01-01T00:15:41;13.17;;;6.60;;
4732;SDS011;2380;53.668;10.008;2023-01-01T00:18:10;17.10;;;5.83;;
4732;SDS011;2380;53.668;10.008;2023-01-01T00:20:40;12.03;;;4.50;;
4732;SDS011;2380;53.668;10.008;2023-01-01T00:23:09;10.30;;;3.93;;
4732;SDS011;2380;53.668;10.008;2023-01-01T00:25:38;7.13;;;3.47;;
4732;SDS011;2380;53.668;10.008;2023-01-01T00:28:12;7.60;;;3.00;;
4732;SDS011;2380;53.668;10.008;2023-01-01T00:30:41;13.70;;;4.20;;
4732;SDS011;2380;53.668;10.008;2023-01-01T00:33:11;16.07;;;3.53;;
4732;SDS011;2380;53.668;10.008;2023-01-01T00:35:40;16.47;;;5.10;;
4732;SDS011;2380;53.668;10.008;2023-01-01T00:38:10;8.50;;;3.63;;
4732;SDS011;2380;53.668;10.008;2023-01-01T00:40:39;11.70;;;4.17;;
4732;SDS011;2380;53.668;10.008;2023-01-01T00:43:08;6.90;;;3.20;;
4732;SDS011;2380;53.668;10.008;2023-01-01T00:45:41;10.20;;;4.57;;
4732;SDS011;2380;53.668;10.008;2023-01-01T00:48:14;25.33;;;5.60;;
4732;SDS011;2380;53.668;10.008;2023-01-01T00:50:44;16.60;;;6.27;;
4732;SDS011;2380;53.668;10.008;2023-01-01T00:53:13;16.30;;;5.37;;
4732;SDS011;2380;53.668;10.008;2023-01-01T00:55:43;13.40;;;5.20;;
4732;SDS011;2380;53.668;10.008;2023-01-01T00:58:16;14.43;;;6.33;;
4732;SDS011;2380;53.668;10.008;2023-01-01T01:00:46;10.23;;;4.47;;
4732;SDS011;2380;53.668;10.008;2023-01-01T01:03:16;13.90;;;6.67;;
4732;SDS011;2380;53.668;10.008;2023-01-01T01:05:56;8.40;;;4.67;;
4732;SDS011;2380;53.668;10.008;2023-01-01T01:08:27;14.13;;;5.70;;
4732;SDS011;2380;53.668;10.008;2023-01-01T01:11:02;11.53;;;4.77;;
4732;SDS011;2380;53.668;10.008;2023-01-01T01:13:35;8.50;;;3.53;;
4732;SDS011;2380;53.668;10.008;2023-01-01T01:16:09;10.63;;;4.20;;
4732;SDS011;2380;53.668;10.008;2023-01-01T01:18:39;11.83;;;3.63;;
4732;SDS011;2380;53.668;10.008;2023-01-01T01:21:09;9.27;;;4.07;;
4732;SDS011;2380;53.668;10.008;2023-01-01T01:23:39;10.90;;;3.50;;
4732;SDS011;2380;53.668;10.008;2023-01-01T01:26:09;13.90;;;5.13;;
4732;SDS011;2380;53.668;10.008;2023-01-01T01:28:42;7.17;;;2.93;;
4732;SDS011;2380;53.668;10.008;2023-01-01T01:31:15;11.70;;;4.40;;
4732;SDS011;2380;53.668;10.008;2023-01-01T01:33:45;15.70;;;4.40;;
4732;SDS011;2380;53.668;10.008;2023-01-01T01:36:16;13.90;;;4.03;;
4732;SDS011;2380;53.668;10.008;2023-01-01T01:38:46;8.70;;;3.23;;
4732;SDS011;2380;53.668;10.008;2023-01-01T01:41:16;10.70;;;3.90;;
4732;SDS011;2380;53.668;10.008;2023-01-01T01:43:57;16.17;;;4.77;;
4732;SDS011;2380;53.668;10.008;2023-01-01T01:46:29;5.10;;;1.90;;
4732;SDS011;2380;53.668;10.008;2023-01-01T01:49:02;10.30;;;3.70;;
4732;SDS011;2380;53.668;10.008;2023-01-01T01:51:33;13.77;;;3.23;;
4732;SDS011;2380;53.668;10.008;2023-01-01T01:54:07;12.00;;;3.60;;
4732;SDS011;2380;53.668;10.008;2023-01-01T01:56:41;12.40;;;3.40;;
4732;SDS011;2380;53.668;10.008;2023-01-01T01:59:15;16.37;;;4.27;;
4732;SDS011;2380;53.668;10.008;2023-01-01T02:01:45;7.10;;;2.87;;
4732;SDS011;2380;53.668;10.008;2023-01-01T02:04:15;12.10;;;4.83;;
4732;SDS011;2380;53.668;10.008;2023-01-01T02:06:45;9.87;;;4.40;;
4732;SDS011;2380;53.668;10.008;2023-01-01T02:09:15;13.90;;;4.13;;
4732;SDS011;2380;53.668;10.008;2023-01-01T02:11:45;14.67;;;3.10;;
4732;SDS011;2380;53.668;10.008;2023-01-01T02:14:17;11.67;;;4.10;;
4732;SDS011;2380;53.668;10.008;2023-01-01T02:16:47;7.10;;;2.70;;
4732;SDS011;2380;53.668;10.008;2023-01-01T02:19:23;12.27;;;3.27;;
4732;SDS011;2380;53.668;10.008;2023-01-01T02:21:59;8.50;;;2.43;;
4732;SDS011;2380;53.668;10.008;2023-01-01T02:24:38;9.53;;;3.70;;
4732;SDS011;2380;53.668;10.008;2023-01-01T02:27:12;7.43;;;3.03;;
4732;SDS011;2380;53.668;10.008;2023-01-01T02:29:51;9.27;;;4.00;;
4732;SDS011;2380;53.668;10.008;2023-01-01T02:32:22;12.40;;;3.50;;
4732;SDS011;2380;53.668;10.008;2023-01-01T02:34:54;11.23;;;3.40;;
4732;SDS011;2380;53.668;10.008;2023-01-01T02:37:46;13.90;;;3.97;;
4732;SDS011;2380;53.668;10.008;2023-01-01T02:40:17;13.83;;;3.80;;
4732;SDS011;2380;53.668;10.008;2023-01-01T02:42:48;10.70;;;3.33;;
4732;SDS011;2380;53.668;10.008;2023-01-01T02:45:20;11.30;;;2.70;;
4732;SDS011;2380;53.668;10.008;2023-01-01T02:47:50;6.27;;;2.80;;
4732;SDS011;2380;53.668;10.008;2023-01-01T02:50:19;8.70;;;3.00;;
4732;SDS011;2380;53.668;10.008;2023-01-01T02:52:55;14.53;;;3.93;;
4732;SDS011;2380;53.668;10.008;2023-01-01T02:55:35;10.93;;;3.57;;
4732;SDS011;2380;53.668;10.008;2023-01-01T02:58:09;9.30;;;4.50;;
4732;SDS011;2380;53.668;10.008;2023-01-01T03:01:03;9.63;;;3.33;;
4732;SDS011;2380;53.668;10.008;2023-01-01T03:03:38;12.70;;;4.23;;
4732;SDS011;2380;53.668;10.008;2023-01-01T03:06:11;12.90;;;3.60;;
4732;SDS011;2380;53.668;10.008;2023-01-01T03:08:54;8.67;;;3.33;;
4732;SDS011;2380;53.668;10.008;2023-01-01T03:11:31;14.17;;;4.90;;
4732;SDS011;2380;53.668;10.008;2023-01-01T03:14:05;12.57;;;4.77;;
4732;SDS011;2380;53.668;10.008;2023-01-01T03:16:41;25.80;;;4.20;;
4732;SDS011;2380;53.668;10.008;2023-01-01T03:19:14;9.07;;;4.13;;
4732;SDS011;2380;53.668;10.008;2023-01-01T03:21:47;16.13;;;5.43;;
4732;SDS011;2380;53.668;10.008;2023-01-01T03:24:19;11.67;;;5.30;;
4732;SDS011;2380;53.668;10.008;2023-01-01T03:26:52;18.40;;;5.90;;
4732;SDS011;2380;53.668;10.008;2023-01-01T03:29:22;19.27;;;7.33;;
4732;SDS011;2380;53.668;10.008;2023-01-01T03:31:55;18.03;;;4.10;;
4732;SDS011;2380;53.668;10.008;2023-01-01T03:34:27;11.70;;;4.77;;
4732;SDS011;2380;53.668;10.008;2023-01-01T03:37:00;16.23;;;5.87;;
4732;SDS011;2380;53.668;10.008;2023-01-01T03:39:33;14.70;;;5.47;;
4732;SDS011;2380;53.668;10.008;2023-01-01T03:42:07;14.60;;;5.83;;
4732;SDS011;2380;53.668;10.008;2023-01-01T03:44:42;16.23;;;6.60;;
4732;SDS011;2380;53.668;10.008;2023-01-01T03:47:16;14.60;;;4.60;;
4732;SDS011;2380;53.668;10.008;2023-01-01T03:49:45;9.77;;;4.70;;
4732;SDS011;2380;53.668;10.008;2023-01-01T03:52:20;8.60;;;3.87;;
4732;SDS011;2380;53.668;10.008;2023-01-01T03:54:56;12.23;;;6.27;;
4732;SDS011;2380;53.668;10.008;2023-01-01T03:57:32;14.73;;;6.33;;
4732;SDS011;2380;53.668;10.008;2023-01-01T04:00:06;11.67;;;6.50;;
4732;SDS011;2380;53.668;10.008;2023-01-01T04:02:46;10.67;;;4.63;;
4732;SDS011;2380;53.668;10.008;2023-01-01T04:05:18;7.37;;;3.40;;
4732;SDS011;2380;53.668;10.008;2023-01-01T04:07:48;7.87;;;3.00;;
4732;SDS011;2380;53.668;10.008;2023-01-01T04:10:19;10.90;;;5.77;;
4732;SDS011;2380;53.668;10.008;2023-01-01T04:12:49;17.73;;;6.50;;
4732;SDS011;2380;53.668;10.008;2023-01-01T04:15:20;15.53;;;5.00;;
4732;SDS011;2380;53.668;10.008;2023-01-01T04:17:53;14.47;;;5.10;;
4732;SDS011;2380;53.668;10.008;2023-01-01T04:20:23;18.50;;;6.30;;
4732;SDS011;2380;53.668;10.008;2023-01-01T04:22:54;14.80;;;5.13;;
4732;SDS011;2380;53.668;10.008;2023-01-01T04:25:24;12.77;;;4.30;;
4732;SDS011;2380;53.668;10.008;2023-01-01T04:27:54;9.30;;;4.43;;
4732;SDS011;2380;53.668;10.008;2023-01-01T04:30:24;12.63;;;3.60;;
4732;SDS011;2380;53.668;10.008;2023-01-01T04:32:57;8.77;;;4.13;;
4732;SDS011;2380;53.668;10.008;2023-01-01T04:35:26;10.50;;;4.40;;
4732;SDS011;2380;53.668;10.008;2023-01-01T04:37:55;17.93;;;4.20;;
4732;SDS011;2380;53.668;10.008;2023-01-01T04:40:28;8.40;;;3.37;;
4732;SDS011;2380;53.668;10.008;2023-01-01T04:42:57;9.37;;;4.03;;
4732;SDS011;2380;53.668;10.008;2023-01-01T04:45:27;9.33;;;3.90;;
4732;SDS011;2380;53.668;10.008;2023-01-01T04:47:59;12.87;;;5.63;;
4732;SDS011;2380;53.668;10.008;2023-01-01T04:50:31;9.53;;;3.60;;
4732;SDS011;2380;53.668;10.008;2023-01-01T04:53:01;7.90;;;3.60;;
4732;SDS011;2380;53.668;10.008;2023-01-01T04:55:30;9.20;;;4.23;;
4732;SDS011;2380;53.668;10.008;2023-01-01T04:58:02;6.20;;;3.03;;
4732;SDS011;2380;53.668;10.008;2023-01-01T05:00:32;6.80;;;3.50;;
4732;SDS011;2380;53.668;10.008;2023-01-01T05:03:04;21.83;;;3.77;;
4732;SDS011;2380;53.668;10.008;2023-01-01T05:05:33;9.40;;;3.17;;
4732;SDS011;2380;53.668;10.008;2023-01-01T05:08:03;8.63;;;3.57;;
4732;SDS011;2380;53.668;10.008;2023-01-01T05:10:32;14.10;;;4.60;;
4732;SDS011;2380;53.668;10.008;2023-01-01T05:13:04;11.80;;;4.37;;
4732;SDS011;2380;53.668;10.008;2023-01-01T05:15:35;12.83;;;4.37;;
4732;SDS011;2380;53.668;10.008;2023-01-01T05:18:07;12.17;;;3.90;;
4732;SDS011;2380;53.668;10.008;2023-01-01T05:20:37;13.53;;;3.73;;
4732;SDS011;2380;53.668;10.008;2023-01-01T05:23:06;14.63;;;3.17;;
4732;SDS011;2380;53.668;10.008;2023-01-01T05:25:36;7.63;;;2.33;;
4732;SDS011;2380;53.668;10.008;2023-01-01T05:28:05;25.17;;;3.23;;
4732;SDS011;2380;53.668;10.008;2023-01-01T05:30:37;11.90;;;2.30;;
4732;SDS011;2380;53.668;10.008;2023-01-01T05:33:09;10.50;;;2.87;;
4732;SDS011;2380;53.668;10.008;2023-01-01T05:35:39;6.40;;;1.90;;
4732;SDS011;2380;53.668;10.008;2023-01-01T05:38:08;9.10;;;2.97;;
4732;SDS011;2380;53.668;10.008;2023-01-01T05:40:38;6.13;;;2.30;;
4732;SDS011;2380;53.668;10.008;2023-01-01T05:43:07;8.37;;;1.90;;
4732;SDS011;2380;53.668;10.008;2023-01-01T05:45:37;9.10;;;2.63;;
4732;SDS011;2380;53.668;10.008;2023-01-01T05:48:06;9.07;;;3.00;;
4732;SDS011;2380;53.668;10.008;2023-01-01T05:50:38;13.40;;;2.27;;
4732;SDS011;2380;53.668;10.008;2023-01-01T05:53:08;7.20;;;3.00;;
4732;SDS011;2380;53.668;10.008;2023-01-01T05:55:37;8.27;;;2.83;;
4732;SDS011;2380;53.668;10.008;2023-01-01T05:58:07;10.97;;;3.20;;
4732;SDS011;2380;53.668;10.008;2023-01-01T06:00:36;14.00;;;3.50;;
4732;SDS011;2380;53.668;10.008;2023-01-01T06:03:06;7.20;;;3.00;;
4732;SDS011;2380;53.668;10.008;2023-01-01T06:05:35;10.37;;;2.43;;
4732;SDS011;2380;53.668;10.008;2023-01-01T06:08:07;9.80;;;2.70;;
4732;SDS011;2380;53.668;10.008;2023-01-01T06:10:36;10.30;;;2.70;;
4732;SDS011;2380;53.668;10.008;2023-01-01T06:13:06;14.03;;;3.80;;
4732;SDS011;2380;53.668;10.008;2023-01-01T06:15:38;5.47;;;2.00;;
4732;SDS011;2380;53.668;10.008;2023-01-01T06:18:08;4.80;;;2.00;;
4732;SDS011;2380;53.668;10.008;2023-01-01T06:20:37;14.87;;;2.87;;
4732;SDS011;2380;53.668;10.008;2023-01-01T06:23:09;6.70;;;1.90;;
4732;SDS011;2380;53.668;10.008;2023-01-01T06:25:39;8.23;;;2.10;;
4732;SDS011;2380;53.668;10.008;2023-01-01T06:28:08;4.27;;;1.60;;
4732;SDS011;2380;53.668;10.008;2023-01-01T06:30:38;6.13;;;1.60;;
4732;SDS011;2380;53.668;10.008;2023-01-01T06:33:07;7.13;;;2.60;;
4732;SDS011;2380;53.668;10.008;2023-01-01T06:35:37;10.83;;;2.60;;
4732;SDS011;2380;53.668;10.008;2023-01-01T06:38:06;9.33;;;2.03;;
4732;SDS011;2380;53.668;10.008;2023-01-01T06:40:38;7.33;;;2.07;;
4732;SDS011;2380;53.668;10.008;2023-01-01T06:43:07;9.43;;;2.20;;
4732;SDS011;2380;53.668;10.008;2023-01-01T06:45:37;8.73;;;2.50;;
4732;SDS011;2380;53.668;10.008;2023-01-01T06:48:06;7.10;;;2.20;;
4732;SDS011;2380;53.668;10.008;2023-01-01T06:50:36;11.83;;;2.67;;
4732;SDS011;2380;53.668;10.008;2023-01-01T06:53:05;17.63;;;2.83;;
4732;SDS011;2380;53.668;10.008;2023-01-01T06:55:37;7.93;;;1.93;;
4732;SDS011;2380;53.668;10.008;2023-01-01T06:58:07;7.37;;;2.43;;
4732;SDS011;2380;53.668;10.008;2023-01-01T07:00:36;3.70;;;1.30;;
4732;SDS011;2380;53.668;10.008;2023-01-01T07:03:07;8.97;;;2.33;;
4732;SDS011;2380;53.668;10.008;2023-01-01T07:05:38;7.67;;;2.60;;
4732;SDS011;2380;53.668;10.008;2023-01-01T07:08:07;6.77;;;1.60;;
4732;SDS011;2380;53.668;10.008;2023-01-01T07:10:39;5.50;;;2.33;;
4732;SDS011;2380;53.668;10.008;2023-01-01T07:13:09;5.13;;;1.70;;
4732;SDS011;2380;53.668;10.008;2023-01-01T07:15:38;9.93;;;2.77;;
4732;SDS011;2380;53.668;10.008;2023-01-01T07:18:09;4.80;;;1.57;;
4732;SDS011;2380;53.668;10.008;2023-01-01T07:20:38;10.80;;;2.40;;
4732;SDS011;2380;53.668;10.008;2023-01-01T07:23:09;8.27;;;2.10;;
4732;SDS011;2380;53.668;10.008;2023-01-01T07:25:42;2.80;;;1.40;;
4732;SDS011;2380;53.668;10.008;2023-01-01T07:28:11;5.47;;;1.60;;
4732;SDS011;2380;53.668;10.008;2023-01-01T07:30:41;7.73;;;2.60;;
4732;SDS011;2380;53.668;10.008;2023-01-01T07:33:11;9.70;;;3.40;;
4732;SDS011;2380;53.668;10.008;2023-01-01T07:35:42;14.27;;;2.63;;
4732;SDS011;2380;53.668;10.008;2023-01-01T07:38:12;5.30;;;1.70;;
4732;SDS011;2380;53.668;10.008;2023-01-01T07:40:46;5.30;;;2.47;;
4732;SDS011;2380;53.668;10.008;2023-01-01T07:43:15;5.73;;;2.07;;
4732;SDS011;2380;53.668;10.008;2023-01-01T07:45:45;5.97;;;2.10;;
4732;SDS011;2380;53.668;10.008;2023-01-01T07:48:14;14.30;;;3.53;;
4732;SDS011;2380;53.668;10.008;2023-01-01T07:50:44;4.40;;;1.80;;
4732;SDS011;2380;53.668;10.008;2023-01-01T07:53:13;4.73;;;2.00;;
4732;SDS011;2380;53.668;10.008;2023-01-01T07:55:43;9.30;;;1.73;;
4732;SDS011;2380;53.668;10.008;2023-01-01T07:58:15;5.07;;;1.77;;
4732;SDS011;2380;53.668;10.008;2023-01-01T08:00:44;2.93;;;1.00;;
4732;SDS011;2380;53.668;10.008;2023-01-01T08:03:15;5.43;;;1.73;;
4732;SDS011;2380;53.668;10.008;2023-01-01T08:05:44;4.10;;;1.73;;
4732;SDS011;2380;53.668;10.008;2023-01-01T08:08:14;9.30;;;1.80;;
4732;SDS011;2380;53.668;10.008;2023-01-01T08:10:46;6.20;;;1.33;;
4732;SDS011;2380;53.668;10.008;2023-01-01T08:13:15;7.60;;;1.80;;
4732;SDS011;2380;53.668;10.008;2023-01-01T08:15:45;4.73;;;1.40;;
4732;SDS011;2380;53.668;10.008;2023-01-01T08:18:17;7.57;;;1.27;;
4732;SDS011;2380;53.668;10.008;2023-01-01T08:20:46;5.67;;;1.30;;
4732;SDS011;2380;53.668;10.008;2023-01-01T08:23:15;5.50;;;1.70;;
4732;SDS011;2380;53.668;10.008;2023-01-01T08:25:47;4.00;;;1.53;;
4732;SDS011;2380;53.668;10.008;2023-01-01T08:28:17;5.53;;;1.20;;
4732;SDS011;2380;53.668;10.008;2023-01-01T08:30:46;9.13;;;1.40;;
4732;SDS011;2380;53.668;10.008;2023-01-01T08:33:16;3.27;;;1.10;;
4732;SDS011;2380;53.668;10.008;2023-01-01T08:35:46;3.47;;;1.20;;
4732;SDS011;2380;53.668;10.008;2023-01-01T08:38:20;9.80;;;1.37;;
4732;SDS011;2380;53.668;10.008;2023-01-01T08:40:52;4.17;;;1.20;;
4732;SDS011;2380;53.668;10.008;2023-01-01T08:43:21;5.10;;;1.37;;
4732;SDS011;2380;53.668;10.008;2023-01-01T08:45:51;3.47;;;1.50;;
4732;SDS011;2380;53.668;10.008;2023-01-01T08:48:20;5.30;;;1.47;;
4732;SDS011;2380;53.668;10.008;2023-01-01T08:50:57;6.60;;;0.70;;
4732;SDS011;2380;53.668;10.008;2023-01-01T08:53:28;6.93;;;1.63;;
4732;SDS011;2380;53.668;10.008;2023-01-01T08:56:02;2.40;;;0.80;;
4732;SDS011;2380;53.668;10.008;2023-01-01T08:58:33;4.10;;;1.30;;
4732;SDS011;2380;53.668;10.008;2023-01-01T09:01:04;3.93;;;1.07;;
4732;SDS011;2380;53.668;10.008;2023-01-01T09:03:34;1.90;;;0.60;;
4732;SDS011;2380;53.668;10.008;2023-01-01T09:06:04;3.20;;;1.00;;
4732;SDS011;2380;53.668;10.008;2023-01-01T09:08:34;1.90;;;0.60;;
4732;SDS011;2380;53.668;10.008;2023-01-01T09:11:06;2.10;;;0.70;;
4732;SDS011;2380;53.668;10.008;2023-01-01T09:13:35;3.20;;;0.80;;
4732;SDS011;2380;53.668;10.008;2023-01-01T09:16:05;2.27;;;0.90;;
4732;SDS011;2380;53.668;10.008;2023-01-01T09:18:35;3.00;;;0.70;;
4732;SDS011;2380;53.668;10.008;2023-01-01T09:21:05;4.30;;;1.23;;
4732;SDS011;2380;53.668;10.008;2023-01-01T09:23:34;2.77;;;0.80;;
4732;SDS011;2380;53.668;10.008;2023-01-01T09:26:07;4.60;;;0.80;;
4732;SDS011;2380;53.668;10.008;2023-01-01T09:28:37;3.43;;;0.70;;
4732;SDS011;2380;53.668;10.008;2023-01-01T09:31:06;5.30;;;1.30;;
4732;SDS011;2380;53.668;10.008;2023-01-01T09:33:36;3.33;;;0.90;;
4732;SDS011;2380;53.668;10.008;2023-01-01T09:36:13;3.40;;;0.90;;
4732;SDS011;2380;53.668;10.008;2023-01-01T09:38:47;5.03;;;1.33;;
4732;SDS011;2380;53.668;10.008;2023-01-01T09:41:21;25.63;;;1.37;;
4732;SDS011;2380;53.668;10.008;2023-01-01T09:43:57;5.43;;;1.40;;
4732;SDS011;2380;53.668;10.008;2023-01-01T09:46:31;3.50;;;1.23;;
4732;SDS011;2380;53.668;10.008;2023-01-01T09:49:03;3.97;;;0.80;;
4732;SDS011;2380;53.668;10.008;2023-01-01T09:51:34;3.17;;;0.90;;
4732;SDS011;2380;53.668;10.008;2023-01-01T09:54:17;11.37;;;1.20;;
4732;SDS011;2380;53.668;10.008;2023-01-01T09:56:56;2.30;;;0.67;;
4732;SDS011;2380;53.668;10.008;2023-01-01T09:59:26;9.60;;;1.30;;
4732;SDS011;2380;53.668;10.008;2023-01-01T10:01:58;4.90;;;0.60;;
4732;SDS011;2380;53.668;10.008;2023-01-01T10:04:38;4.47;;;1.07;;
4732;SDS011;2380;53.668;10.008;2023-01-01T10:07:13;5.33;;;1.17;;
4732;SDS011;2380;53.668;10.008;2023-01-01T10:09:49;5.57;;;0.77;;
4732;SDS011;2380;53.668;10.008;2023-01-01T10:12:27;6.37;;;1.20;;
4732;SDS011;2380;53.668;10.008;2023-01-01T10:15:02;3.20;;;1.07;;
4732;SDS011;2380;53.668;10.008;2023-01-01T10:17:35;8.20;;;1.10;;
4732;SDS011;2380;53.668;10.008;2023-01-01T10:20:10;5.67;;;0.97;;
4732;SDS011;2380;53.668;10.008;2023-01-01T10:22:46;8.70;;;1.47;;
4732;SDS011;2380;53.668;10.008;2023-01-01T10:25:19;6.70;;;0.97;;
4732;SDS011;2380;53.668;10.008;2023-01-01T10:27:52;6.70;;;0.83;;
4732;SDS011;2380;53.668;10.008;2023-01-01T10:30:28;6.07;;;1.30;;
4732;SDS011;2380;53.668;10.008;2023-01-01T10:32:58;7.43;;;1.63;;
4732;SDS011;2380;53.668;10.008;2023-01-01T10:35:29;3.20;;;0.60;;
4732;SDS011;2380;53.668;10.008;2023-01-01T10:38:02;4.83;;;1.10;;
4732;SDS011;2380;53.668;10.008;2023-01-01T10:40:32;8.60;;;1.13;;
4732;SDS011;2380;53.668;10.008;2023-01-01T10:43:05;8.27;;;0.90;;
4732;SDS011;2380;53.668;10.008;2023-01-01T10:45:38;5.17;;;0.80;;
4732;SDS011;2380;53.668;10.008;2023-01-01T10:48:14;5.80;;;1.00;;
4732;SDS011;2380;53.668;10.008;2023-01-01T10:50:47;4.23;;;0.90;;
4732;SDS011;2380;53.668;10.008;2023-01-01T10:53:22;4.67;;;1.63;;
4732;SDS011;2380;53.668;10.008;2023-01-01T10:56:03;2.53;;;0.77;;
4732;SDS011;2380;53.668;10.008;2023-01-01T10:58:38;6.20;;;2.37;;
4732;SDS011;2380;53.668;10.008;2023-01-01T11:01:11;5.83;;;1.23;;
4732;SDS011;2380;53.668;10.008;2023-01-01T11:03:51;6.00;;;1.00;;
4732;SDS011;2380;53.668;10.008;2023-01-01T11:06:26;4.47;;;0.80;;
4732;SDS011;2380;53.668;10.008;2023-01-01T11:08:59;3.20;;;0.60;;
4732;SDS011;2380;53.668;10.008;2023-01-01T11:11:34;2.83;;;0.60;;
4732;SDS011;2380;53.668;10.008;2023-01-01T11:14:14;1.73;;;0.63;;
4732;SDS011;2380;53.668;10.008;2023-01-01T11:16:47;3.00;;;0.70;;
4732;SDS011;2380;53.668;10.008;2023-01-01T11:19:19;3.30;;;0.80;;
4732;SDS011;2380;53.668;10.008;2023-01-01T11:21:51;4.47;;;0.80;;
4732;SDS011;2380;53.668;10.008;2023-01-01T11:24:22;5.40;;;1.17;;
4732;SDS011;2380;53.668;10.008;2023-01-01T11:26:52;4.70;;;1.10;;
4732;SDS011;2380;53.668;10.008;2023-01-01T11:29:26;8.13;;;1.23;;
4732;SDS011;2380;53.668;10.008;2023-01-01T11:31:56;12.50;;;1.23;;
4732;SDS011;2380;53.668;10.008;2023-01-01T11:34:27;10.73;;;2.07;;
4732;SDS011;2380;53.668;10.008;2023-01-01T11:37:06;7.23;;;1.23;;
4732;SDS011;2380;53.668;10.008;2023-01-01T11:39:37;5.07;;;1.20;;
4732;SDS011;2380;53.668;10.008;2023-01-01T11:42:15;3.80;;;0.80;;
4732;SDS011;2380;53.668;10.008;2023-01-01T11:44:48;8.00;;;1.30;;
4732;SDS011;2380;53.668;10.008;2023-01-01T11:47:25;5.80;;;1.33;;
4732;SDS011;2380;53.668;10.008;2023-01-01T11:49:57;4.10;;;1.67;;
4732;SDS011;2380;53.668;10.008;2023-01-01T11:52:46;5.30;;;1.10;;
4732;SDS011;2380;53.668;10.008;2023-01-01T11:55:21;4.80;;;1.03;;
4732;SDS011;2380;53.668;10.008;2023-01-01T11:57:55;4.43;;;1.00;;
4732;SDS011;2380;53.668;10.008;2023-01-01T12:00:33;3.53;;;1.00;;
4732;SDS011;2380;53.668;10.008;2023-01-01T12:03:08;6.57;;;0.97;;
4732;SDS011;2380;53.668;10.008;2023-01-01T12:05:47;8.80;;;1.40;;
4732;SDS011;2380;53.668;10.008;2023-01-01T12:08:27;4.90;;;0.80;;
4732;SDS011;2380;53.668;10.008;2023-01-01T12:11:03;6.40;;;0.90;;
4732;SDS011;2380;53.668;10.008;2023-01-01T12:13:43;7.53;;;1.50;;
4732;SDS011;2380;53.668;10.008;2023-01-01T12:16:17;6.77;;;1.07;;
4732;SDS011;2380;53.668;10.008;2023-01-01T12:18:51;3.97;;;0.70;;
4732;SDS011;2380;53.668;10.008;2023-01-01T12:21:25;8.93;;;1.47;;
4732;SDS011;2380;53.668;10.008;2023-01-01T12:23:58;11.30;;;0.80;;
4732;SDS011;2380;53.668;10.008;2023-01-01T12:26:28;5.43;;;1.47;;
4732;SDS011;2380;53.668;10.008;2023-01-01T12:29:18;4.83;;;0.70;;
4732;SDS011;2380;53.668;10.008;2023-01-01T12:32:12;9.63;;;1.30;;
4732;SDS011;2380;53.668;10.008;2023-01-01T12:34:50;6.27;;;0.90;;
4732;SDS011;2380;53.668;10.008;2023-01-01T12:37:26;5.73;;;1.27;;
4732;SDS011;2380;53.668;10.008;2023-01-01T12:43:02;5.97;;;1.33;;
4732;SDS011;2380;53.668;10.008;2023-01-01T12:48:33;7.47;;;1.10;;
4732;SDS011;2380;53.668;10.008;2023-01-01T12:51:14;7.90;;;1.57;;
4732;SDS011;2380;53.668;10.008;2023-01-01T12:53:56;5.47;;;0.90;;
4732;SDS011;2380;53.668;10.008;2023-01-01T12:56:32;5.87;;;1.00;;
4732;SDS011;2380;53.668;10.008;2023-01-01T12:59:04;7.67;;;1.50;;
4732;SDS011;2380;53.668;10.008;2023-01-01T13:01:37;6.13;;;1.47;;
4732;SDS011;2380;53.668;10.008;2023-01-01T13:04:12;6.50;;;1.10;;
4732;SDS011;2380;53.668;10.008;2023-01-01T13:06:46;6.00;;;1.60;;
4732;SDS011;2380;53.668;10.008;2023-01-01T13:09:18;3.83;;;1.03;;
4732;SDS011;2380;53.668;10.008;2023-01-01T13:11:49;5.40;;;1.30;;
4732;SDS011;2380;53.668;10.008;2023-01-01T13:14:21;6.43;;;0.70;;
4732;SDS011;2380;53.668;10.008;2023-01-01T13:16:51;4.70;;;0.90;;
4732;SDS011;2380;53.668;10.008;2023-01-01T13:19:31;6.57;;;1.00;;
4732;SDS011;2380;53.668;10.008;2023-01-01T13:25:04;3.67;;;0.90;;
4732;SDS011;2380;53.668;10.008;2023-01-01T13:30:44;5.93;;;1.13;;
4732;SDS011;2380;53.668;10.008;2023-01-01T13:33:19;9.33;;;1.20;;
4732;SDS011;2380;53.668;10.008;2023-01-01T13:38:58;4.77;;;0.97;;
4732;SDS011;2380;53.668;10.008;2023-01-01T13:41:28;5.80;;;1.53;;
4732;SDS011;2380;53.668;10.008;2023-01-01T13:44:11;7.40;;;1.77;;
4732;SDS011;2380;53.668;10.008;2023-01-01T13:46:53;4.27;;;0.90;;
4732;SDS011;2380;53.668;10.008;2023-01-01T13:49:35;4.67;;;0.80;;
4732;SDS011;2380;53.668;10.008;2023-01-01T13:52:25;8.70;;;1.03;;
4732;SDS011;2380;53.668;10.008;2023-01-01T13:55:26;8.60;;;1.03;;
4732;SDS011;2380;53.668;10.008;2023-01-01T14:04:06;16.87;;;1.37;;
4732;SDS011;2380;53.668;10.008;2023-01-01T14:06:41;3.10;;;0.90;;
4732;SDS011;2380;53.668;10.008;2023-01-01T14:09:13;8.07;;;1.40;;
4732;SDS011;2380;53.668;10.008;2023-01-01T14:11:46;7.80;;;1.00;;
4732;SDS011;2380;53.668;10.008;2023-01-01T14:14:22;9.50;;;1.50;;
4732;SDS011;2380;53.668;10.008;2023-01-01T14:16:54;11.00;;;1.50;;
4732;SDS011;2380;53.668;10.008;2023-01-01T14:19:25;8.47;;;2.07;;
4732;SDS011;2380;53.668;10.008;2023-01-01T14:21:55;12.80;;;4.23;;
4732;SDS011;2380;53.668;10.008;2023-01-01T14:24:25;17.20;;;4.63;;
4732;SDS011;2380;53.668;10.008;2023-01-01T14:26:58;7.00;;;1.93;;
4732;SDS011;2380;53.668;10.008;2023-01-01T14:29:28;10.60;;;1.67;;
4732;SDS011;2380;53.668;10.008;2023-01-01T14:31:59;11.03;;;1.73;;
4732;SDS011;2380;53.668;10.008;2023-01-01T14:34:29;10.80;;;2.77;;
4732;SDS011;2380;53.668;10.008;2023-01-01T14:37:01;9.37;;;2.40;;
4732;SDS011;2380;53.668;10.008;2023-01-01T14:39:33;9.27;;;1.47;;
4732;SDS011;2380;53.668;10.008;2023-01-01T14:42:06;13.47;;;2.50;;
4732;SDS011;2380;53.668;10.008;2023-01-01T14:44:38;8.83;;;1.03;;
4732;SDS011;2380;53.668;10.008;2023-01-01T14:47:14;9.40;;;2.13;;
4732;SDS011;2380;53.668;10.008;2023-01-01T14:49:49;16.17;;;2.47;;
4732;SDS011;2380;53.668;10.008;2023-01-01T14:52:21;6.37;;;1.67;;
4732;SDS011;2380;53.668;10.008;2023-01-01T14:54:52;8.00;;;1.60;;
4732;SDS011;2380;53.668;10.008;2023-01-01T14:57:27;5.97;;;1.63;;
4732;SDS011;2380;53.668;10.008;2023-01-01T14:59:58;9.17;;;1.73;;
4732;SDS011;2380;53.668;10.008;2023-01-01T15:02:29;12.00;;;2.00;;
4732;SDS011;2380;53.668;10.008;2023-01-01T15:05:08;8.40;;;1.97;;
4732;SDS011;2380;53.668;10.008;2023-01-01T15:07:53;5.43;;;1.17;;
4732;SDS011;2380;53.668;10.008;2023-01-01T15:10:24;8.77;;;1.50;;
4732;SDS011;2380;53.668;10.008;2023-01-01T15:12:57;13.57;;;1.50;;
4732;SDS011;2380;53.668;10.008;2023-01-01T15:15:37;8.47;;;1.90;;
4732;SDS011;2380;53.668;10.008;2023-01-01T15:21:03;8.90;;;1.70;;
4732;SDS011;2380;53.668;10.008;2023-01-01T15:23:35;11.20;;;1.80;;
4732;SDS011;2380;53.668;10.008;2023-01-01T15:26:08;7.77;;;1.40;;
4732;SDS011;2380;53.668;10.008;2023-01-01T15:28:44;14.47;;;1.60;;
4732;SDS011;2380;53.668;10.008;2023-01-01T15:31:13;10.40;;;2.20;;
4732;SDS011;2380;53.668;10.008;2023-01-01T15:33:44;12.83;;;1.50;;
4732;SDS011;2380;53.668;10.008;2023-01-01T15:36:14;9.40;;;1.90;;
4732;SDS011;2380;53.668;10.008;2023-01-01T15:38:45;10.40;;;1.60;;
4732;SDS011;2380;53.668;10.008;2023-01-01T15:41:22;6.70;;;1.57;;
4732;SDS011;2380;53.668;10.008;2023-01-01T15:46:43;10.87;;;1.50;;
4732;SDS011;2380;53.668;10.008;2023-01-01T15:49:20;10.33;;;1.73;;
4732;SDS011;2380;53.668;10.008;2023-01-01T15:51:52;8.93;;;2.03;;
4732;SDS011;2380;53.668;10.008;2023-01-01T15:54:22;9.77;;;2.33;;